sensor_id;sensor_type;location;lat;lon;timestamp;pressure;altitude;pressure_sealevel;temperature;humidity
74960;BME280;63518;49.572;1.106;2024-01-27T00:01:16;101643.66;;;2.09;100.00
74960;BME280;63518;49.572;1.106;2024-01-27T00:03:42;101653.69;;;2.23;100.00
74960;BME280;63518;49.572;1.106;2024-01-27T00:06:09;101648.81;;;2.19;100.00
74960;BME280;63518;49.572;1.106;2024-01-27T00:08:36;101652.94;;;2.59;100.00
74960;BME280;63518;49.572;1.106;2024-01-27T00:11:03;101649.06;;;2.53;100.00
74960;BME280;63518;49.572;1.106;2024-01-27T00:13:29;101642.91;;;2.01;100.00
74960;BME280;63518;49.572;1.106;2024-01-27T00:15:56;101645.09;;;1.82;100.00
74960;BME280;63518;49.572;1.106;2024-01-27T00:18:23;101636.25;;;1.65;100.00
74960;BME280;63518;49.572;1.106;2024-01-27T00:20:50;101636.66;;;1.77;100.00
74960;BME280;63518;49.572;1.106;2024-01-27T00:23:16;101641.91;;;1.79;100.00
74960;BME280;63518;49.572;1.106;2024-01-27T00:25:43;101645.84;;;1.76;100.00
74960;BME280;63518;49.572;1.106;2024-01-27T00:28:10;101648.78;;;1.89;100.00
74960;BME280;63518;49.572;1.106;2024-01-27T00:30:37;101638.63;;;1.83;100.00
74960;BME280;63518;49.572;1.106;2024-01-27T00:33:04;101654.44;;;2.03;100.00
74960;BME280;63518;49.572;1.106;2024-01-27T00:35:31;101665.19;;;2.34;100.00
74960;BME280;63518;49.572;1.106;2024-01-27T00:37:58;101656.81;;;2.20;100.00
74960;BME280;63518;49.572;1.106;2024-01-27T00:40:25;101665.81;;;2.50;100.00
74960;BME280;63518;49.572;1.106;2024-01-27T00:42:51;101640.53;;;2.42;100.00
74960;BME280;63518;49.572;1.106;2024-01-27T00:45:19;101660.56;;;2.64;100.00
74960;BME280;63518;49.572;1.106;2024-01-27T00:47:45;101642.59;;;2.54;100.00
74960;BME280;63518;49.572;1.106;2024-01-27T00:50:13;101652.94;;;2.59;100.00
74960;BME280;63518;49.572;1.106;2024-01-27T00:52:39;101646.09;;;2.34;100.00
74960;BME280;63518;49.572;1.106;2024-01-27T00:55:06;101648.44;;;2.37;100.00
74960;BME280;63518;49.572;1.106;2024-01-27T00:57:33;101644.56;;;2.46;100.00
74960;BME280;63518;49.572;1.106;2024-01-27T00:59:59;101633.31;;;2.49;100.00
74960;BME280;63518;49.572;1.106;2024-01-27T01:02:26;101640.47;;;2.86;100.00
74960;BME280;63518;49.572;1.106;2024-01-27T01:04:53;101632.41;;;2.63;100.00
74960;BME280;63518;49.572;1.106;2024-01-27T01:07:20;101651.25;;;2.43;100.00
74960;BME280;63518;49.572;1.106;2024-01-27T01:09:46;101649.75;;;2.41;100.00
74960;BME280;63518;49.572;1.106;2024-01-27T01:12:13;101634.06;;;2.79;100.00
74960;BME280;63518;49.572;1.106;2024-01-27T01:14:43;101657.00;;;2.99;100.00
74960;BME280;63518;49.572;1.106;2024-01-27T01:17:10;101647.25;;;2.90;100.00
74960;BME280;63518;49.572;1.106;2024-01-27T01:19:37;101641.75;;;2.54;100.00
74960;BME280;63518;49.572;1.106;2024-01-27T01:22:04;101649.88;;;2.33;100.00
74960;BME280;63518;49.572;1.106;2024-01-27T01:24:31;101633.97;;;2.21;100.00
74960;BME280;63518;49.572;1.106;2024-01-27T01:26:58;101643.56;;;2.17;100.00
74960;BME280;63518;49.572;1.106;2024-01-27T01:29:26;101640.94;;;2.24;100.00
74960;BME280;63518;49.572;1.106;2024-01-27T01:31:53;101637.25;;;2.32;100.00
74960;BME280;63518;49.572;1.106;2024-01-27T01:34:19;101639.91;;;2.25;100.00
74960;BME280;63518;49.572;1.106;2024-01-27T01:36:46;101634.81;;;1.92;100.00
74960;BME280;63518;49.572;1.106;2024-01-27T01:39:14;101636.13;;;1.96;100.00
74960;BME280;63518;49.572;1.106;2024-01-27T01:41:41;101649.53;;;1.98;100.00
74960;BME280;63518;49.572;1.106;2024-01-27T01:44:08;101651.91;;;2.01;100.00
74960;BME280;63518;49.572;1.106;2024-01-27T01:46:34;101637.34;;;1.94;100.00
74960;BME280;63518;49.572;1.106;2024-01-27T01:49:01;101641.66;;;1.88;100.00
74960;BME280;63518;49.572;1.106;2024-01-27T01:51:28;101647.81;;;1.82;100.00
74960;BME280;63518;49.572;1.106;2024-01-27T01:53:58;101636.94;;;1.82;100.00
74960;BME280;63518;49.572;1.106;2024-01-27T01:56:25;101629.69;;;1.75;100.00
74960;BME280;63518;49.572;1.106;2024-01-27T01:58:53;101626.72;;;1.47;100.00
74960;BME280;63518;49.572;1.106;2024-01-27T02:01:20;101629.97;;;1.65;100.00
74960;BME280;63518;49.572;1.106;2024-01-27T02:03:54;101624.06;;;1.61;100.00
74960;BME280;63518;49.572;1.106;2024-01-27T02:06:21;101644.34;;;1.74;100.00
74960;BME280;63518;49.572;1.106;2024-01-27T02:08:48;101642.03;;;1.85;100.00
74960;BME280;63518;49.572;1.106;2024-01-27T02:11:15;101628.38;;;1.70;100.00
74960;BME280;63518;49.572;1.106;2024-01-27T02:13:42;101636.13;;;1.59;100.00
74960;BME280;63518;49.572;1.106;2024-01-27T02:16:09;101625.19;;;1.44;100.00
74960;BME280;63518;49.572;1.106;2024-01-27T02:18:36;101601.38;;;1.46;100.00
74960;BME280;63518;49.572;1.106;2024-01-27T02:21:03;101610.78;;;1.58;100.00
74960;BME280;63518;49.572;1.106;2024-01-27T02:23:30;101618.38;;;1.48;100.00
74960;BME280;63518;49.572;1.106;2024-01-27T02:25:56;101622.81;;;1.64;100.00
74960;BME280;63518;49.572;1.106;2024-01-27T02:28:23;101599.09;;;1.73;100.00
74960;BME280;63518;49.572;1.106;2024-01-27T02:30:50;101628.31;;;1.93;100.00
74960;BME280;63518;49.572;1.106;2024-01-27T02:33:17;101611.78;;;1.95;100.00
74960;BME280;63518;49.572;1.106;2024-01-27T02:35:44;101613.00;;;2.07;100.00
74960;BME280;63518;49.572;1.106;2024-01-27T02:38:11;101612.34;;;1.90;100.00
74960;BME280;63518;49.572;1.106;2024-01-27T02:40:37;101607.31;;;2.17;100.00
74960;BME280;63518;49.572;1.106;2024-01-27T02:43:04;101589.66;;;1.60;100.00
74960;BME280;63518;49.572;1.106;2024-01-27T02:45:30;101591.69;;;1.43;100.00
74960;BME280;63518;49.572;1.106;2024-01-27T02:47:57;101576.06;;;1.46;100.00
74960;BME280;63518;49.572;1.106;2024-01-27T02:50:24;101575.56;;;1.42;100.00
74960;BME280;63518;49.572;1.106;2024-01-27T02:52:51;101581.06;;;1.34;100.00
74960;BME280;63518;49.572;1.106;2024-01-27T02:55:18;101578.69;;;1.68;100.00
74960;BME280;63518;49.572;1.106;2024-01-27T02:57:44;101585.19;;;1.67;100.00
74960;BME280;63518;49.572;1.106;2024-01-27T03:00:11;101589.09;;;1.50;100.00
74960;BME280;63518;49.572;1.106;2024-01-27T03:02:38;101580.31;;;1.25;100.00
74960;BME280;63518;49.572;1.106;2024-01-27T03:05:05;101594.50;;;1.12;100.00
74960;BME280;63518;49.572;1.106;2024-01-27T03:07:32;101577.19;;;0.91;100.00
74960;BME280;63518;49.572;1.106;2024-01-27T03:09:59;101577.25;;;0.82;100.00
74960;BME280;63518;49.572;1.106;2024-01-27T03:12:25;101592.34;;;0.85;100.00
74960;BME280;63518;49.572;1.106;2024-01-27T03:14:52;101587.59;;;0.79;100.00
74960;BME280;63518;49.572;1.106;2024-01-27T03:17:20;101582.84;;;0.81;100.00
74960;BME280;63518;49.572;1.106;2024-01-27T03:19:46;101580.72;;;0.68;100.00
74960;BME280;63518;49.572;1.106;2024-01-27T03:22:15;101578.47;;;0.72;100.00
74960;BME280;63518;49.572;1.106;2024-01-27T03:24:42;101572.09;;;0.88;100.00
74960;BME280;63518;49.572;1.106;2024-01-27T03:27:08;101591.19;;;1.02;100.00
74960;BME280;63518;49.572;1.106;2024-01-27T03:29:35;101584.13;;;0.93;100.00
74960;BME280;63518;49.572;1.106;2024-01-27T03:32:02;101592.63;;;1.13;100.00
74960;BME280;63518;49.572;1.106;2024-01-27T03:34:29;101589.44;;;1.32;100.00
74960;BME280;63518;49.572;1.106;2024-01-27T03:36:56;101587.69;;;1.17;100.00
74960;BME280;63518;49.572;1.106;2024-01-27T03:39:22;101582.00;;;1.26;100.00
74960;BME280;63518;49.572;1.106;2024-01-27T03:41:49;101573.84;;;1.03;100.00
74960;BME280;63518;49.572;1.106;2024-01-27T03:44:16;101583.41;;;1.22;100.00
74960;BME280;63518;49.572;1.106;2024-01-27T03:46:43;101588.50;;;1.40;100.00
74960;BME280;63518;49.572;1.106;2024-01-27T03:49:09;101599.59;;;1.38;100.00
74960;BME280;63518;49.572;1.106;2024-01-27T03:51:36;101593.97;;;1.40;100.00
74960;BME280;63518;49.572;1.106;2024-01-27T03:54:03;101582.28;;;1.69;100.00
74960;BME280;63518;49.572;1.106;2024-01-27T03:56:30;101582.75;;;1.35;100.00
74960;BME280;63518;49.572;1.106;2024-01-27T03:58:56;101576.97;;;1.38;100.00
74960;BME280;63518;49.572;1.106;2024-01-27T04:01:23;101581.53;;;1.00;100.00
74960;BME280;63518;49.572;1.106;2024-01-27T04:03:50;101581.75;;;1.13;100.00
74960;BME280;63518;49.572;1.106;2024-01-27T04:06:16;101585.56;;;1.04;100.00
74960;BME280;63518;49.572;1.106;2024-01-27T04:08:43;101596.09;;;1.07;100.00
74960;BME280;63518;49.572;1.106;2024-01-27T04:11:19;101591.78;;;1.12;100.00
74960;BME280;63518;49.572;1.106;2024-01-27T04:13:48;101580.84;;;1.21;100.00
74960;BME280;63518;49.572;1.106;2024-01-27T04:16:15;101592.56;;;1.21;100.00
74960;BME280;63518;49.572;1.106;2024-01-27T04:18:42;101606.00;;;1.00;100.00
74960;BME280;63518;49.572;1.106;2024-01-27T04:21:09;101584.28;;;0.69;100.00
74960;BME280;63518;49.572;1.106;2024-01-27T04:23:35;101592.44;;;0.69;100.00
74960;BME280;63518;49.572;1.106;2024-01-27T04:26:02;101604.19;;;0.61;100.00
74960;BME280;63518;49.572;1.106;2024-01-27T04:28:29;101602.00;;;0.56;100.00
74960;BME280;63518;49.572;1.106;2024-01-27T04:30:56;101606.97;;;0.53;100.00
74960;BME280;63518;49.572;1.106;2024-01-27T04:33:23;101605.28;;;0.52;100.00
74960;BME280;63518;49.572;1.106;2024-01-27T04:35:50;101597.47;;;0.49;100.00
74960;BME280;63518;49.572;1.106;2024-01-27T04:38:17;101592.81;;;0.35;100.00
74960;BME280;63518;49.572;1.106;2024-01-27T04:40:44;101598.63;;;0.15;100.00
74960;BME280;63518;49.572;1.106;2024-01-27T04:43:17;101599.06;;;0.35;100.00
74960;BME280;63518;49.572;1.106;2024-01-27T04:45:44;101606.06;;;0.29;100.00
74960;BME280;63518;49.572;1.106;2024-01-27T04:48:11;101599.13;;;0.27;100.00
74960;BME280;63518;49.572;1.106;2024-01-27T04:50:38;101587.91;;;0.22;100.00
74960;BME280;63518;49.572;1.106;2024-01-27T04:53:05;101593.56;;;0.12;100.00
74960;BME280;63518;49.572;1.106;2024-01-27T04:55:31;101595.56;;;0.18;100.00
74960;BME280;63518;49.572;1.106;2024-01-27T04:57:58;101600.88;;;0.12;100.00
74960;BME280;63518;49.572;1.106;2024-01-27T05:00:25;101600.69;;;0.13;100.00
74960;BME280;63518;49.572;1.106;2024-01-27T05:02:53;101587.13;;;0.05;100.00
74960;BME280;63518;49.572;1.106;2024-01-27T05:05:20;101575.81;;;-0.15;100.00
74960;BME280;63518;49.572;1.106;2024-01-27T05:07:47;101593.63;;;-0.04;100.00
74960;BME280;63518;49.572;1.106;2024-01-27T05:10:15;101592.22;;;-0.00;100.00
74960;BME280;63518;49.572;1.106;2024-01-27T05:12:42;101593.47;;;-0.11;100.00
74960;BME280;63518;49.572;1.106;2024-01-27T05:15:10;101588.81;;;0.06;100.00
74960;BME280;63518;49.572;1.106;2024-01-27T05:17:37;101602.84;;;0.18;100.00
74960;BME280;63518;49.572;1.106;2024-01-27T05:20:05;101587.72;;;0.23;100.00
74960;BME280;63518;49.572;1.106;2024-01-27T05:22:32;101554.53;;;0.13;100.00
74960;BME280;63518;49.572;1.106;2024-01-27T05:24:58;101563.28;;;0.23;100.00
74960;BME280;63518;49.572;1.106;2024-01-27T05:27:25;101582.97;;;0.25;100.00
74960;BME280;63518;49.572;1.106;2024-01-27T05:29:52;101578.53;;;0.33;100.00
74960;BME280;63518;49.572;1.106;2024-01-27T05:32:19;101583.91;;;0.41;100.00
74960;BME280;63518;49.572;1.106;2024-01-27T05:34:45;101588.94;;;0.21;100.00
74960;BME280;63518;49.572;1.106;2024-01-27T05:37:12;101591.50;;;0.14;100.00
74960;BME280;63518;49.572;1.106;2024-01-27T05:39:39;101580.50;;;0.08;100.00
74960;BME280;63518;49.572;1.106;2024-01-27T05:42:06;101566.91;;;0.08;100.00
74960;BME280;63518;49.572;1.106;2024-01-27T05:44:33;101575.09;;;0.39;100.00
74960;BME280;63518;49.572;1.106;2024-01-27T05:47:00;101583.28;;;0.30;100.00
74960;BME280;63518;49.572;1.106;2024-01-27T05:49:26;101576.56;;;0.10;100.00
74960;BME280;63518;49.572;1.106;2024-01-27T05:51:53;101571.47;;;0.15;100.00
74960;BME280;63518;49.572;1.106;2024-01-27T05:54:20;101559.94;;;0.13;100.00
74960;BME280;63518;49.572;1.106;2024-01-27T05:56:47;101556.63;;;-0.13;100.00
74960;BME280;63518;49.572;1.106;2024-01-27T05:59:13;101544.41;;;-0.09;100.00
74960;BME280;63518;49.572;1.106;2024-01-27T06:01:40;101554.56;;;0.05;100.00
74960;BME280;63518;49.572;1.106;2024-01-27T06:04:07;101549.50;;;-0.06;100.00
74960;BME280;63518;49.572;1.106;2024-01-27T06:06:34;101554.78;;;0.26;100.00
74960;BME280;63518;49.572;1.106;2024-01-27T06:09:04;101552.06;;;-0.05;100.00
74960;BME280;63518;49.572;1.106;2024-01-27T06:11:31;101558.03;;;0.22;100.00
74960;BME280;63518;49.572;1.106;2024-01-27T06:13:57;101552.50;;;0.07;100.00
74960;BME280;63518;49.572;1.106;2024-01-27T06:16:24;101555.53;;;0.12;100.00
74960;BME280;63518;49.572;1.106;2024-01-27T06:18:51;101554.16;;;0.16;100.00
74960;BME280;63518;49.572;1.106;2024-01-27T06:21:18;101557.09;;;0.07;100.00
74960;BME280;63518;49.572;1.106;2024-01-27T06:23:45;101555.88;;;0.09;100.00
74960;BME280;63518;49.572;1.106;2024-01-27T06:26:13;101565.94;;;0.00;100.00
74960;BME280;63518;49.572;1.106;2024-01-27T06:28:40;101575.28;;;-0.02;100.00
74960;BME280;63518;49.572;1.106;2024-01-27T06:31:07;101583.75;;;0.03;100.00
74960;BME280;63518;49.572;1.106;2024-01-27T06:33:37;101570.19;;;0.03;100.00
74960;BME280;63518;49.572;1.106;2024-01-27T06:36:04;101578.84;;;-0.02;100.00
74960;BME280;63518;49.572;1.106;2024-01-27T06:38:31;101601.78;;;0.35;100.00
74960;BME280;63518;49.572;1.106;2024-01-27T06:40:58;101583.75;;;0.03;100.00
74960;BME280;63518;49.572;1.106;2024-01-27T06:43:24;101572.41;;;-0.09;100.00
74960;BME280;63518;49.572;1.106;2024-01-27T06:45:51;101581.69;;;0.13;100.00
74960;BME280;63518;49.572;1.106;2024-01-27T06:48:18;101573.03;;;0.01;100.00
74960;BME280;63518;49.572;1.106;2024-01-27T06:50:45;101563.88;;;0.11;100.00
74960;BME280;63518;49.572;1.106;2024-01-27T06:53:11;101569.47;;;0.01;100.00
74960;BME280;63518;49.572;1.106;2024-01-27T06:55:38;101569.69;;;-0.09;100.00
74960;BME280;63518;49.572;1.106;2024-01-27T06:58:09;101570.34;;;-0.07;100.00
74960;BME280;63518;49.572;1.106;2024-01-27T07:00:35;101558.63;;;0.01;100.00
74960;BME280;63518;49.572;1.106;2024-01-27T07:03:03;101563.03;;;0.02;100.00
74960;BME280;63518;49.572;1.106;2024-01-27T07:05:30;101569.50;;;-0.07;100.00
74960;BME280;63518;49.572;1.106;2024-01-27T07:07:59;101564.25;;;-0.01;100.00
74960;BME280;63518;49.572;1.106;2024-01-27T07:10:26;101532.59;;;-0.24;100.00
74960;BME280;63518;49.572;1.106;2024-01-27T07:12:53;101552.97;;;-0.29;100.00
74960;BME280;63518;49.572;1.106;2024-01-27T07:15:20;101563.84;;;-0.53;100.00
74960;BME280;63518;49.572;1.106;2024-01-27T07:17:48;101561.97;;;-0.36;100.00
74960;BME280;63518;49.572;1.106;2024-01-27T07:20:15;101568.91;;;-0.26;100.00
74960;BME280;63518;49.572;1.106;2024-01-27T07:22:42;101564.13;;;-0.15;100.00
74960;BME280;63518;49.572;1.106;2024-01-27T07:25:08;101572.38;;;-0.01;100.00
74960;BME280;63518;49.572;1.106;2024-01-27T07:27:36;101558.00;;;-0.09;100.00
74960;BME280;63518;49.572;1.106;2024-01-27T07:30:03;101544.53;;;-0.42;100.00
74960;BME280;63518;49.572;1.106;2024-01-27T07:32:31;101551.94;;;-0.28;100.00
74960;BME280;63518;49.572;1.106;2024-01-27T07:34:58;101562.09;;;-0.21;100.00
74960;BME280;63518;49.572;1.106;2024-01-27T07:37:25;101558.44;;;0.02;100.00
74960;BME280;63518;49.572;1.106;2024-01-27T07:39:51;101559.84;;;-0.02;100.00
74960;BME280;63518;49.572;1.106;2024-01-27T07:42:18;101559.31;;;0.03;100.00
74960;BME280;63518;49.572;1.106;2024-01-27T07:44:45;101571.59;;;0.30;100.00
74960;BME280;63518;49.572;1.106;2024-01-27T07:47:12;101566.94;;;0.39;100.00
74960;BME280;63518;49.572;1.106;2024-01-27T07:49:38;101571.69;;;0.45;100.00
74960;BME280;63518;49.572;1.106;2024-01-27T07:52:05;101567.94;;;0.46;100.00
74960;BME280;63518;49.572;1.106;2024-01-27T07:54:32;101573.88;;;0.41;100.00
74960;BME280;63518;49.572;1.106;2024-01-27T07:57:05;101565.59;;;0.43;100.00
74960;BME280;63518;49.572;1.106;2024-01-27T07:59:32;101587.25;;;0.59;100.00
74960;BME280;63518;49.572;1.106;2024-01-27T08:01:59;101594.44;;;0.44;100.00
74960;BME280;63518;49.572;1.106;2024-01-27T08:04:26;101576.69;;;0.25;100.00
74960;BME280;63518;49.572;1.106;2024-01-27T08:06:53;101580.81;;;0.52;100.00
74960;BME280;63518;49.572;1.106;2024-01-27T08:09:20;101591.28;;;0.63;100.00
74960;BME280;63518;49.572;1.106;2024-01-27T08:11:47;101590.00;;;0.74;100.00
74960;BME280;63518;49.572;1.106;2024-01-27T08:14:18;101591.84;;;0.81;100.00
74960;BME280;63518;49.572;1.106;2024-01-27T08:16:46;101583.25;;;0.70;100.00
74960;BME280;63518;49.572;1.106;2024-01-27T08:19:13;101577.97;;;0.76;100.00
74960;BME280;63518;49.572;1.106;2024-01-27T08:21:47;101598.28;;;0.80;100.00
74960;BME280;63518;49.572;1.106;2024-01-27T08:24:14;101585.88;;;0.86;100.00
74960;BME280;63518;49.572;1.106;2024-01-27T08:26:40;101584.78;;;0.95;100.00
74960;BME280;63518;49.572;1.106;2024-01-27T08:29:09;101580.44;;;0.86;100.00
74960;BME280;63518;49.572;1.106;2024-01-27T08:31:35;101593.38;;;0.84;100.00
74960;BME280;63518;49.572;1.106;2024-01-27T08:34:04;101599.66;;;0.84;100.00
74960;BME280;63518;49.572;1.106;2024-01-27T08:36:31;101608.41;;;1.18;100.00
74960;BME280;63518;49.572;1.106;2024-01-27T08:39:00;101603.75;;;1.03;100.00
74960;BME280;63518;49.572;1.106;2024-01-27T08:41:27;101594.63;;;0.96;100.00
74960;BME280;63518;49.572;1.106;2024-01-27T08:43:55;101585.22;;;1.07;100.00
74960;BME280;63518;49.572;1.106;2024-01-27T08:46:22;101597.78;;;1.08;100.00
74960;BME280;63518;49.572;1.106;2024-01-27T08:48:49;101597.22;;;1.12;100.00
74960;BME280;63518;49.572;1.106;2024-01-27T08:51:16;101602.44;;;0.99;100.00
74960;BME280;63518;49.572;1.106;2024-01-27T08:53:44;101590.47;;;1.31;100.00
74960;BME280;63518;49.572;1.106;2024-01-27T08:56:17;101590.22;;;1.18;100.00
74960;BME280;63518;49.572;1.106;2024-01-27T08:58:44;101566.81;;;1.32;100.00
74960;BME280;63518;49.572;1.106;2024-01-27T09:01:11;101581.56;;;1.37;100.00
74960;BME280;63518;49.572;1.106;2024-01-27T09:03:39;101576.31;;;1.51;100.00
74960;BME280;63518;49.572;1.106;2024-01-27T09:06:09;101591.13;;;1.86;100.00
74960;BME280;63518;49.572;1.106;2024-01-27T09:08:36;101602.13;;;1.92;100.00
74960;BME280;63518;49.572;1.106;2024-01-27T09:11:03;101596.75;;;1.84;100.00
74960;BME280;63518;49.572;1.106;2024-01-27T09:13:30;101592.91;;;1.79;100.00
74960;BME280;63518;49.572;1.106;2024-01-27T09:15:57;101594.41;;;1.81;100.00
74960;BME280;63518;49.572;1.106;2024-01-27T09:18:26;101595.91;;;1.98;100.00
74960;BME280;63518;49.572;1.106;2024-01-27T09:20:54;101583.22;;;1.91;100.00
74960;BME280;63518;49.572;1.106;2024-01-27T09:23:21;101584.34;;;1.82;100.00
74960;BME280;63518;49.572;1.106;2024-01-27T09:25:47;101577.31;;;1.73;100.00
74960;BME280;63518;49.572;1.106;2024-01-27T09:28:14;101576.09;;;2.34;100.00
74960;BME280;63518;49.572;1.106;2024-01-27T09:30:42;101584.81;;;2.44;100.00
74960;BME280;63518;49.572;1.106;2024-01-27T09:33:09;101577.13;;;2.69;100.00
74960;BME280;63518;49.572;1.106;2024-01-27T09:35:37;101573.19;;;3.36;100.00
74960;BME280;63518;49.572;1.106;2024-01-27T09:38:04;101577.75;;;3.07;100.00
74960;BME280;63518;49.572;1.106;2024-01-27T09:40:31;101558.44;;;2.66;100.00
74960;BME280;63518;49.572;1.106;2024-01-27T09:42:59;101553.38;;;3.27;100.00
74960;BME280;63518;49.572;1.106;2024-01-27T09:45:26;101566.81;;;2.65;100.00
74960;BME280;63518;49.572;1.106;2024-01-27T09:47:54;101580.97;;;3.39;100.00
74960;BME280;63518;49.572;1.106;2024-01-27T09:50:23;101587.28;;;3.18;100.00
74960;BME280;63518;49.572;1.106;2024-01-27T09:52:50;101592.53;;;2.77;100.00
74960;BME280;63518;49.572;1.106;2024-01-27T09:55:17;101599.03;;;2.76;100.00
74960;BME280;63518;49.572;1.106;2024-01-27T09:57:44;101601.75;;;2.76;100.00
74960;BME280;63518;49.572;1.106;2024-01-27T10:00:13;101602.28;;;2.86;100.00
74960;BME280;63518;49.572;1.106;2024-01-27T10:02:41;101605.91;;;2.93;100.00
74960;BME280;63518;49.572;1.106;2024-01-27T10:05:08;101586.47;;;2.96;100.00
74960;BME280;63518;49.572;1.106;2024-01-27T10:07:35;101588.28;;;2.89;100.00
74960;BME280;63518;49.572;1.106;2024-01-27T10:10:03;101600.88;;;3.54;100.00
74960;BME280;63518;49.572;1.106;2024-01-27T10:12:31;101588.53;;;3.37;100.00
74960;BME280;63518;49.572;1.106;2024-01-27T10:14:58;101592.44;;;3.49;100.00
74960;BME280;63518;49.572;1.106;2024-01-27T10:17:25;101593.94;;;3.52;100.00
74960;BME280;63518;49.572;1.106;2024-01-27T10:20:02;101595.94;;;3.22;100.00
74960;BME280;63518;49.572;1.106;2024-01-27T10:22:38;101590.16;;;3.31;100.00
74960;BME280;63518;49.572;1.106;2024-01-27T10:25:06;101593.84;;;3.24;100.00
74960;BME280;63518;49.572;1.106;2024-01-27T10:27:33;101596.72;;;3.58;100.00
74960;BME280;63518;49.572;1.106;2024-01-27T10:30:00;101592.25;;;4.13;100.00
74960;BME280;63518;49.572;1.106;2024-01-27T10:32:27;101578.06;;;3.90;100.00
74960;BME280;63518;49.572;1.106;2024-01-27T10:37:30;101584.34;;;3.62;100.00
74960;BME280;63518;49.572;1.106;2024-01-27T10:40:15;101588.41;;;3.73;100.00
74960;BME280;63518;49.572;1.106;2024-01-27T10:42:43;101561.59;;;3.55;100.00
74960;BME280;63518;49.572;1.106;2024-01-27T10:45:11;101559.81;;;3.69;100.00
74960;BME280;63518;49.572;1.106;2024-01-27T10:47:39;101567.84;;;3.49;100.00
74960;BME280;63518;49.572;1.106;2024-01-27T10:50:09;101572.28;;;4.13;100.00
74960;BME280;63518;49.572;1.106;2024-01-27T10:52:39;101570.28;;;3.65;100.00
74960;BME280;63518;49.572;1.106;2024-01-27T10:55:10;101577.16;;;3.83;100.00
74960;BME280;63518;49.572;1.106;2024-01-27T10:57:37;101566.81;;;4.06;100.00
74960;BME280;63518;49.572;1.106;2024-01-27T11:00:05;101571.72;;;3.89;100.00
74960;BME280;63518;49.572;1.106;2024-01-27T11:02:34;101560.09;;;3.81;100.00
74960;BME280;63518;49.572;1.106;2024-01-27T11:05:03;101557.19;;;4.17;100.00
74960;BME280;63518;49.572;1.106;2024-01-27T11:07:32;101555.19;;;4.39;100.00
74960;BME280;63518;49.572;1.106;2024-01-27T11:09:59;101543.44;;;4.52;100.00
74960;BME280;63518;49.572;1.106;2024-01-27T11:12:26;101527.47;;;4.55;100.00
74960;BME280;63518;49.572;1.106;2024-01-27T11:14:54;101503.34;;;4.17;100.00
74960;BME280;63518;49.572;1.106;2024-01-27T11:17:21;101520.19;;;4.28;100.00
74960;BME280;63518;49.572;1.106;2024-01-27T11:19:47;101514.88;;;4.06;100.00
74960;BME280;63518;49.572;1.106;2024-01-27T11:22:27;101504.78;;;4.61;100.00
74960;BME280;63518;49.572;1.106;2024-01-27T11:27:38;101510.06;;;4.89;100.00
74960;BME280;63518;49.572;1.106;2024-01-27T11:30:06;101508.19;;;5.03;100.00
74960;BME280;63518;49.572;1.106;2024-01-27T11:32:50;101486.84;;;4.52;100.00
74960;BME280;63518;49.572;1.106;2024-01-27T11:35:17;101503.53;;;4.90;100.00
74960;BME280;63518;49.572;1.106;2024-01-27T11:37:44;101510.28;;;5.60;100.00
74960;BME280;63518;49.572;1.106;2024-01-27T11:40:12;101486.81;;;5.84;100.00
74960;BME280;63518;49.572;1.106;2024-01-27T11:42:39;101498.03;;;5.76;100.00
74960;BME280;63518;49.572;1.106;2024-01-27T11:45:07;101492.81;;;6.26;100.00
74960;BME280;63518;49.572;1.106;2024-01-27T11:47:34;101481.50;;;6.03;100.00
74960;BME280;63518;49.572;1.106;2024-01-27T11:50:01;101501.66;;;6.35;100.00
74960;BME280;63518;49.572;1.106;2024-01-27T11:52:28;101471.69;;;5.88;100.00
74960;BME280;63518;49.572;1.106;2024-01-27T11:54:56;101474.97;;;6.49;100.00
74960;BME280;63518;49.572;1.106;2024-01-27T11:57:24;101473.84;;;6.94;100.00
74960;BME280;63518;49.572;1.106;2024-01-27T11:59:51;101463.06;;;6.30;100.00
74960;BME280;63518;49.572;1.106;2024-01-27T12:02:19;101472.78;;;6.64;100.00
74960;BME280;63518;49.572;1.106;2024-01-27T12:04:49;101466.22;;;7.46;100.00
74960;BME280;63518;49.572;1.106;2024-01-27T12:07:17;101469.00;;;7.40;100.00
74960;BME280;63518;49.572;1.106;2024-01-27T12:09:49;101459.94;;;7.39;100.00
74960;BME280;63518;49.572;1.106;2024-01-27T12:12:17;101452.47;;;6.33;100.00
74960;BME280;63518;49.572;1.106;2024-01-27T12:14:46;101466.94;;;6.54;100.00
74960;BME280;63518;49.572;1.106;2024-01-27T12:17:13;101457.31;;;7.26;100.00
74960;BME280;63518;49.572;1.106;2024-01-27T12:19:46;101443.91;;;7.79;100.00
74960;BME280;63518;49.572;1.106;2024-01-27T12:22:23;101429.25;;;7.42;100.00
74960;BME280;63518;49.572;1.106;2024-01-27T12:24:50;101438.72;;;7.46;100.00
74960;BME280;63518;49.572;1.106;2024-01-27T12:27:17;101449.09;;;7.88;100.00
74960;BME280;63518;49.572;1.106;2024-01-27T12:29:47;101434.19;;;7.95;100.00
74960;BME280;63518;49.572;1.106;2024-01-27T12:32:14;101416.66;;;8.08;100.00
74960;BME280;63518;49.572;1.106;2024-01-27T12:34:42;101437.25;;;8.35;100.00
74960;BME280;63518;49.572;1.106;2024-01-27T12:37:10;101411.75;;;7.80;100.00
74960;BME280;63518;49.572;1.106;2024-01-27T12:39:37;101423.31;;;7.64;100.00
74960;BME280;63518;49.572;1.106;2024-01-27T12:42:07;101414.53;;;8.82;100.00
74960;BME280;63518;49.572;1.106;2024-01-27T12:44:34;101408.59;;;7.76;100.00
74960;BME280;63518;49.572;1.106;2024-01-27T12:47:00;101402.06;;;7.77;100.00
74960;BME280;63518;49.572;1.106;2024-01-27T12:49:29;101389.09;;;8.56;100.00
74960;BME280;63518;49.572;1.106;2024-01-27T12:51:56;101401.34;;;7.82;100.00
74960;BME280;63518;49.572;1.106;2024-01-27T12:54:23;101396.84;;;7.69;100.00
74960;BME280;63518;49.572;1.106;2024-01-27T12:56:50;101379.25;;;7.34;100.00